Deseret, Utah
Current Conditions -  °F | °C
As of 11:35 AM on Saturday 25 Oct 2014 (Local Time) from KDTA Reporting Station
Clear Clear  
Wind Chill: 69°   Ceiling: Unl
Heat Index: 69°   Visibility: 10mi
Dew Point: 31°   Wind: 15mph
Humidity: 25%   Direction: 190°S
Pressure: 30.12"   Gusts: 21mph
Location:  39.3657°N, 112.477°W
Report Text: KDTA 251735Z AUTO 19013G18KT 10SM CLR 21/00 A3012 RMK AO1 T02061003
Loading
Personal Weather Stations






























Interactive Weather Map
Tropical Storm Tracking
New forecast layout! Learn more

10-Day Weather Forecast

Advertisements
Track Severe Weather on mobile